Ash Township, Michigan
Current Conditions -  °F | °C
As of 8:08 PM on Sunday 21 Dec 2014 (Local Time) from KTTF Reporting Station
Clear Clear  
Wind Chill: 24°   Ceiling: Unl
Heat Index: 30°   Visibility: 7mi
Dew Point: 25°   Wind: 6mph
Humidity: 80%   Direction: 120°ESE
Pressure: 30.21"   Gusts: NA
Location:  42.051°N, 83.409°W
Report Text: KTTF 220108Z AUTO 12005KT 7SM CLR M01/M04 A3021 RMK AO2
Loading
Personal Weather Stations






























Interactive Weather Map New forecast layout! Learn more

10-Day Weather Forecast

Advertisements
Track Severe Weather on mobile